createdAt,value
2022-11-30T00:01:52.217Z,23.33
2022-11-30T00:04:20.838Z,22.48
2022-11-30T00:06:49.416Z,22.77
2022-11-30T00:09:17.949Z,21.27
2022-11-30T00:11:46.575Z,22.85
2022-11-30T00:14:15.245Z,22.77
2022-11-30T00:16:45.806Z,23.08
2022-11-30T00:19:14.427Z,22.23
2022-11-30T00:21:43.062Z,21.33
2022-11-30T00:24:11.725Z,21.67
2022-11-30T00:26:40.325Z,22.25
2022-11-30T00:29:08.920Z,24.13
2022-11-30T00:31:37.463Z,19.52
2022-11-30T00:34:08.049Z,20.67
2022-11-30T00:36:36.649Z,20.73
2022-11-30T00:39:05.830Z,21.55
2022-11-30T00:41:34.375Z,21.23
2022-11-30T00:44:02.964Z,20.98
2022-11-30T00:46:31.756Z,21.50
2022-11-30T00:49:00.466Z,21.77
2022-11-30T00:51:30.952Z,22.38
2022-11-30T00:53:59.600Z,21.77
2022-11-30T00:56:28.149Z,22.45
2022-11-30T00:58:56.760Z,20.40
2022-11-30T01:01:25.404Z,23.50
2022-11-30T01:03:54.238Z,22.20
2022-11-30T01:06:22.798Z,23.15
2022-11-30T01:08:53.338Z,23.38
2022-11-30T01:11:25.960Z,22.38
2022-11-30T01:13:56.558Z,22.58
2022-11-30T01:16:28.264Z,20.58
2022-11-30T01:18:57.953Z,22.63
2022-11-30T01:21:30.096Z,22.25
2022-11-30T01:24:00.660Z,23.00
2022-11-30T01:26:29.340Z,21.90
2022-11-30T01:28:58.180Z,21.92
2022-11-30T01:31:27.069Z,22.27
2022-11-30T01:33:57.119Z,23.70
2022-11-30T01:36:27.746Z,22.30
2022-11-30T01:38:59.990Z,22.63
2022-11-30T01:41:31.173Z,22.65
2022-11-30T01:44:30.839Z,23.58
2022-11-30T01:47:02.360Z,24.52
2022-11-30T01:49:35.750Z,24.77
2022-11-30T01:52:09.011Z,25.27
2022-11-30T01:54:46.843Z,24.08
2022-11-30T01:57:20.546Z,24.05
2022-11-30T01:59:50.880Z,24.25
2022-11-30T02:02:27.982Z,24.50
2022-11-30T02:04:56.879Z,24.52
2022-11-30T02:07:25.742Z,24.90
2022-11-30T02:09:56.293Z,23.40
2022-11-30T02:12:34.515Z,26.48
2022-11-30T02:15:10.730Z,24.38
2022-11-30T02:17:48.850Z,24.83
2022-11-30T02:20:57.488Z,24.30
2022-11-30T02:23:59.140Z,25.13
2022-11-30T02:27:04.342Z,25.10
2022-11-30T02:29:39.810Z,23.92
2022-11-30T02:32:13.698Z,24.40
2022-11-30T02:34:44.159Z,25.95
2022-11-30T02:37:15.564Z,25.25
2022-11-30T02:39:45.164Z,23.63
2022-11-30T02:42:14.933Z,22.85
2022-11-30T02:44:49.290Z,22.58
2022-11-30T02:47:27.085Z,22.92
2022-11-30T02:50:01.375Z,23.45
2022-11-30T02:52:32.916Z,23.75
2022-11-30T02:55:03.647Z,23.73
2022-11-30T02:57:32.377Z,24.33
2022-11-30T03:00:08.499Z,24.77
2022-11-30T03:02:37.147Z,25.35
2022-11-30T03:05:06.636Z,24.45
2022-11-30T03:07:35.622Z,23.13
2022-11-30T03:10:05.868Z,25.00
2022-11-30T03:12:34.578Z,25.23
2022-11-30T03:15:05.692Z,24.67
2022-11-30T03:17:34.466Z,22.88
2022-11-30T03:20:03.791Z,26.38
2022-11-30T03:22:32.446Z,26.30
2022-11-30T03:25:00.998Z,26.45
2022-11-30T03:27:29.533Z,24.80
2022-11-30T03:29:58.095Z,24.00
2022-11-30T03:32:30.362Z,24.52
2022-11-30T03:34:59.071Z,23.13
2022-11-30T03:37:27.721Z,26.23
2022-11-30T03:39:58.378Z,26.02
2022-11-30T03:42:27.260Z,26.73
2022-11-30T03:44:55.854Z,25.60
2022-11-30T03:47:24.446Z,24.52
2022-11-30T03:49:54.990Z,27.58
2022-11-30T03:52:23.569Z,26.30
2022-11-30T03:54:52.183Z,27.17
2022-11-30T03:57:20.933Z,27.50
2022-11-30T03:59:49.513Z,26.40
2022-11-30T04:02:18.084Z,26.80
2022-11-30T04:04:47.006Z,24.92
2022-11-30T04:07:17.816Z,24.80
2022-11-30T04:09:46.447Z,25.50
2022-11-30T04:12:15.067Z,26.60
2022-11-30T04:14:43.667Z,26.95
2022-11-30T04:17:12.291Z,27.25
2022-11-30T04:19:40.928Z,26.88
2022-11-30T04:22:09.537Z,23.33
2022-11-30T04:24:40.091Z,27.13
2022-11-30T04:27:08.685Z,26.85
2022-11-30T04:29:37.264Z,27.15
2022-11-30T04:32:06.017Z,27.45
2022-11-30T04:34:34.582Z,28.08
2022-11-30T04:37:03.209Z,27.42
2022-11-30T04:39:34.927Z,28.13
2022-11-30T04:42:06.032Z,28.55
2022-11-30T04:44:34.598Z,28.10
2022-11-30T04:47:03.156Z,30.00
2022-11-30T04:49:31.716Z,28.48
2022-11-30T04:52:00.282Z,26.98
2022-11-30T04:54:28.928Z,27.83
2022-11-30T04:56:57.522Z,27.77
2022-11-30T04:59:28.011Z,28.23
2022-11-30T05:01:56.755Z,25.83
2022-11-30T05:04:25.485Z,28.33
2022-11-30T05:06:54.109Z,27.73
2022-11-30T05:09:22.735Z,29.15
2022-11-30T05:11:51.299Z,29.35
2022-11-30T05:14:19.958Z,27.13
2022-11-30T05:16:51.603Z,30.20
2022-11-30T05:19:20.267Z,31.23
2022-11-30T05:21:48.915Z,31.38
2022-11-30T05:24:18.095Z,29.75
2022-11-30T05:26:46.737Z,30.58
2022-11-30T05:29:15.417Z,30.92
2022-11-30T05:31:44.063Z,30.70
2022-11-30T05:34:14.900Z,27.88
2022-11-30T05:36:43.514Z,30.27
2022-11-30T05:39:12.255Z,29.30
2022-11-30T05:41:40.915Z,34.63
2022-11-30T05:44:10.912Z,33.15
2022-11-30T05:46:41.076Z,31.42
2022-11-30T05:49:09.987Z,32.25
2022-11-30T05:51:42.111Z,30.90
2022-11-30T05:54:10.742Z,29.00
2022-11-30T05:56:39.341Z,32.45
2022-11-30T05:59:08.014Z,32.22
2022-11-30T06:01:36.677Z,31.08
2022-11-30T06:04:09.039Z,32.83
2022-11-30T06:06:37.677Z,33.17
2022-11-30T06:09:08.298Z,31.00
2022-11-30T06:11:39.982Z,31.80
2022-11-30T06:14:08.606Z,33.88
2022-11-30T06:16:40.626Z,33.08
2022-11-30T06:19:09.255Z,34.72
2022-11-30T06:21:37.857Z,35.30
2022-11-30T06:24:10.131Z,36.15
2022-11-30T06:26:39.152Z,33.05
2022-11-30T06:29:07.792Z,33.03
2022-11-30T06:31:36.452Z,35.45
2022-11-30T06:34:05.061Z,35.78
2022-11-30T06:36:36.232Z,35.40
2022-11-30T06:39:06.151Z,32.90
2022-11-30T06:41:36.736Z,34.60
2022-11-30T06:44:10.052Z,33.38
2022-11-30T06:46:38.683Z,35.50
2022-11-30T06:49:07.563Z,34.00
2022-11-30T06:51:36.833Z,34.60
2022-11-30T06:54:05.903Z,33.00
2022-11-30T06:56:36.566Z,36.13
2022-11-30T06:59:05.294Z,33.90
2022-11-30T07:01:34.040Z,33.55
2022-11-30T07:04:02.668Z,30.73
2022-11-30T07:06:31.357Z,33.15
2022-11-30T07:08:59.925Z,31.30
2022-11-30T07:11:28.540Z,30.13
2022-11-30T07:13:59.095Z,31.58
2022-11-30T07:16:27.805Z,34.22
2022-11-30T07:18:56.434Z,34.05
2022-11-30T07:21:25.405Z,32.95
2022-11-30T07:24:07.106Z,30.67
2022-11-30T07:26:40.852Z,32.78
2022-11-30T07:29:13.808Z,29.63
2022-11-30T07:31:42.521Z,32.78
2022-11-30T07:34:12.741Z,31.42
2022-11-30T07:36:41.312Z,30.02
2022-11-30T07:39:11.151Z,31.52
2022-11-30T07:41:43.917Z,29.45
2022-11-30T07:44:14.723Z,29.30
2022-11-30T07:46:43.681Z,31.65
2022-11-30T07:49:12.852Z,32.40
2022-11-30T07:51:41.615Z,34.42
2022-11-30T07:54:10.284Z,30.35
2022-11-30T07:56:38.908Z,32.45
2022-11-30T07:59:07.547Z,32.47
2022-11-30T08:01:38.304Z,30.40
2022-11-30T08:04:07.368Z,31.58
2022-11-30T08:06:36.078Z,32.42
2022-11-30T08:09:06.609Z,33.97
2022-11-30T08:11:37.351Z,33.75
2022-11-30T08:14:06.665Z,34.33
2022-11-30T08:16:39.486Z,35.15
2022-11-30T08:19:08.426Z,32.55
2022-11-30T08:21:37.488Z,29.95
2022-11-30T08:24:07.089Z,33.75
2022-11-30T08:26:36.183Z,31.05
2022-11-30T08:29:04.912Z,30.52
2022-11-30T08:31:35.669Z,29.42
2022-11-30T08:34:09.292Z,32.17
2022-11-30T08:36:38.067Z,30.92
2022-11-30T08:39:08.630Z,32.85
2022-11-30T08:41:38.633Z,32.58
2022-11-30T08:44:07.969Z,34.10
2022-11-30T08:46:53.452Z,32.92
2022-11-30T08:49:25.406Z,31.90
2022-11-30T08:54:47.609Z,30.77
2022-11-30T08:57:17.734Z,29.25
2022-11-30T08:59:46.547Z,31.10
2022-11-30T09:02:19.035Z,31.55
2022-11-30T09:04:51.315Z,30.38
2022-11-30T09:07:20.124Z,31.05
2022-11-30T09:09:49.134Z,30.38
2022-11-30T09:12:17.791Z,28.90
2022-11-30T09:14:50.794Z,30.00
2022-11-30T09:17:22.785Z,29.58
2022-11-30T09:19:54.090Z,28.83
2022-11-30T09:22:22.819Z,31.65
2022-11-30T09:24:51.528Z,31.55
2022-11-30T09:27:20.283Z,29.13
2022-11-30T09:29:48.900Z,30.73
2022-11-30T09:32:17.515Z,29.23
2022-11-30T09:34:46.461Z,28.98
2022-11-30T09:37:17.194Z,28.10
2022-11-30T09:39:45.796Z,29.90
2022-11-30T09:42:44.866Z,28.67
2022-11-30T09:45:20.607Z,27.95
2022-11-30T09:48:09.943Z,28.73
2022-11-30T09:50:44.455Z,28.52
2022-11-30T09:53:28.954Z,28.85
2022-11-30T09:56:00.295Z,28.10
2022-11-30T09:58:40.167Z,28.20
2022-11-30T10:01:19.163Z,27.73
2022-11-30T10:03:48.605Z,28.95
2022-11-30T10:06:27.723Z,27.23
2022-11-30T10:09:31.917Z,27.95
2022-11-30T10:12:07.619Z,26.95
2022-11-30T10:15:07.035Z,28.88
2022-11-30T10:17:47.355Z,25.80
2022-11-30T10:20:39.180Z,25.88
2022-11-30T10:23:27.288Z,27.27
2022-11-30T10:26:01.668Z,26.42
2022-11-30T10:28:47.590Z,25.67
2022-11-30T10:31:18.023Z,26.42
2022-11-30T10:33:50.512Z,27.70
2022-11-30T10:36:45.783Z,25.73
2022-11-30T10:39:22.164Z,26.05
2022-11-30T10:41:57.026Z,26.70
2022-11-30T10:44:30.059Z,26.88
2022-11-30T10:47:04.580Z,26.05
2022-11-30T10:49:34.532Z,26.48
2022-11-30T10:52:08.217Z,25.38
2022-11-30T10:54:38.419Z,26.42
2022-11-30T10:57:09.393Z,25.98
2022-11-30T10:59:45.951Z,25.27
2022-11-30T11:02:42.354Z,26.67
2022-11-30T11:05:21.164Z,24.15
2022-11-30T11:07:57.835Z,25.65
2022-11-30T11:10:35.861Z,25.25
2022-11-30T11:13:07.354Z,25.50
2022-11-30T11:15:36.810Z,24.88
2022-11-30T11:18:26.087Z,26.25
2022-11-30T11:21:07.627Z,24.27
2022-11-30T11:23:39.592Z,24.60
2022-11-30T11:26:17.183Z,24.55
2022-11-30T11:28:51.061Z,24.92
2022-11-30T11:31:35.045Z,25.48
2022-11-30T11:34:04.103Z,25.70
2022-11-30T11:36:36.188Z,26.42
2022-11-30T11:39:25.562Z,24.90
2022-11-30T11:41:54.564Z,25.73
2022-11-30T11:44:27.639Z,25.83
2022-11-30T11:46:59.373Z,26.52
2022-11-30T11:49:30.416Z,25.30
2022-11-30T11:52:04.086Z,25.40
2022-11-30T11:54:38.216Z,25.80
2022-11-30T11:57:13.208Z,25.80
2022-11-30T11:59:53.559Z,24.88
2022-11-30T12:02:36.249Z,24.85
2022-11-30T12:05:12.255Z,24.60
2022-11-30T12:07:47.733Z,24.83
2022-11-30T12:13:22.875Z,26.42
2022-11-30T12:16:08.310Z,26.00
2022-11-30T12:18:51.267Z,26.88
2022-11-30T12:21:33.241Z,26.45
2022-11-30T12:24:35.410Z,26.30
2022-11-30T12:27:17.964Z,28.13
2022-11-30T12:30:00.185Z,26.77
2022-11-30T12:32:51.165Z,26.13
2022-11-30T12:35:36.506Z,24.45
2022-11-30T12:38:20.760Z,24.33
2022-11-30T12:40:58.153Z,22.10
2022-11-30T12:43:40.765Z,22.33
2022-11-30T12:46:21.370Z,23.67
2022-11-30T12:49:09.978Z,24.80
2022-11-30T12:51:45.282Z,24.05
2022-11-30T12:54:22.984Z,25.00
2022-11-30T12:56:58.351Z,27.48
2022-11-30T12:59:39.198Z,26.88
2022-11-30T13:02:37.688Z,26.35
2022-11-30T13:05:12.364Z,25.77
2022-11-30T13:07:46.087Z,27.00
2022-11-30T13:10:26.687Z,25.52
2022-11-30T13:12:57.579Z,25.55
2022-11-30T13:15:30.720Z,25.55
2022-11-30T13:18:01.166Z,24.65
2022-11-30T13:20:39.935Z,25.95
2022-11-30T13:23:15.540Z,25.23
2022-11-30T13:26:08.420Z,25.35
2022-11-30T13:29:00.962Z,26.05
2022-11-30T13:31:37.087Z,25.45
2022-11-30T13:34:05.752Z,26.60
2022-11-30T13:36:40.098Z,25.90
2022-11-30T13:39:24.994Z,27.70
2022-11-30T13:42:37.370Z,26.85
2022-11-30T13:45:38.098Z,28.73
2022-11-30T13:48:33.147Z,28.08
2022-11-30T13:51:02.250Z,27.65
2022-11-30T13:53:35.276Z,28.67
2022-11-30T13:56:23.899Z,29.08
2022-11-30T13:59:35.633Z,29.15
2022-11-30T14:04:45.477Z,28.70
2022-11-30T14:07:36.763Z,30.83
2022-11-30T14:10:26.534Z,30.10
2022-11-30T14:13:05.385Z,29.40
2022-11-30T14:15:57.580Z,29.63
2022-11-30T14:21:24.534Z,30.65
2022-11-30T14:24:00.370Z,29.02
2022-11-30T14:26:37.466Z,29.75
2022-11-30T14:29:20.039Z,29.23
2022-11-30T14:31:57.723Z,27.88
2022-11-30T14:34:31.881Z,29.58
2022-11-30T14:37:04.672Z,31.13
2022-11-30T14:39:36.868Z,29.33
2022-11-30T14:42:23.375Z,29.20
2022-11-30T14:44:55.225Z,29.73
2022-11-30T14:49:56.525Z,28.50
2022-11-30T14:52:50.184Z,30.45
2022-11-30T14:55:32.497Z,29.27
2022-11-30T14:58:16.422Z,29.23
2022-11-30T15:00:48.541Z,30.27
2022-11-30T15:03:26.284Z,30.70
2022-11-30T15:05:58.382Z,30.33
2022-11-30T15:08:36.400Z,31.45
2022-11-30T15:11:08.295Z,30.65
2022-11-30T15:16:22.038Z,29.80
2022-11-30T15:18:51.793Z,30.58
2022-11-30T15:21:23.822Z,29.80
2022-11-30T15:23:53.882Z,29.83
2022-11-30T15:26:28.550Z,31.52
2022-11-30T15:29:01.547Z,31.50
2022-11-30T15:31:38.278Z,30.60
2022-11-30T15:34:08.570Z,32.10
2022-11-30T15:36:38.947Z,31.42
2022-11-30T15:39:16.291Z,31.35
2022-11-30T15:41:45.002Z,31.17
2022-11-30T15:44:26.716Z,31.45
2022-11-30T15:47:02.564Z,31.75
2022-11-30T15:49:33.485Z,32.28
2022-11-30T15:52:08.428Z,32.40
2022-11-30T15:54:52.063Z,32.20
2022-11-30T15:57:22.304Z,31.70
2022-11-30T16:00:10.881Z,31.80
2022-11-30T16:02:41.550Z,31.58
2022-11-30T16:05:27.637Z,34.05
2022-11-30T16:07:59.355Z,34.38
2022-11-30T16:10:34.214Z,34.25
2022-11-30T16:13:03.643Z,34.08
2022-11-30T16:15:35.450Z,34.15
2022-11-30T16:18:20.826Z,35.38
2022-11-30T16:20:53.522Z,37.25
2022-11-30T16:26:03.190Z,39.03
2022-11-30T16:28:39.907Z,39.47
2022-11-30T16:31:15.399Z,38.30
2022-11-30T16:33:44.492Z,35.10
2022-11-30T16:36:18.190Z,33.08
2022-11-30T16:38:50.029Z,31.70
2022-11-30T16:43:53.422Z,29.33
2022-11-30T16:46:25.204Z,29.05
2022-11-30T16:48:54.446Z,29.58
2022-11-30T16:51:26.664Z,30.40
2022-11-30T16:53:55.847Z,29.30
2022-11-30T16:56:26.841Z,29.08
2022-11-30T16:58:55.699Z,22.77
2022-11-30T17:01:34.534Z,31.17
2022-11-30T17:04:14.049Z,29.60
2022-11-30T17:06:44.010Z,29.75
2022-11-30T17:09:17.595Z,29.90
2022-11-30T17:11:49.774Z,31.95
2022-11-30T17:14:19.283Z,31.02
2022-11-30T17:16:48.209Z,30.52
